Ansonia, PA

1:07 PM EDT on October 31, 2014 (GMT -0400)
Hanky Panky | Change Station
CLOSE
Current Station
Personal Weather Station
Location: Gaines, PA
Elevation: 1380 ft
Nearby Weather Stations

Elev 1380 ft 41.74 °N, 77.60 °W | Updated 41 seconds ago

Overcast
Overcast
45.7 °F
Feels Like 46 °F
N
1.3
Wind Variable Wind from ENE
Gusts 1.3 mph

Today
High -- | Low -- °F
--% Chance of Precip.
Yesterday
High -- | Low -- °F
Precip. -- in
7:40 AM 6:05 PM
First Quarter, 57% visible
Pressure 29.95 in
Visibility 10.0 miles
Clouds Overcast 3700 ft
Windchill 46 °F
Dew Point 34 °F
Humidity 63%
Rainfall 0.00 in
Snow Depth Not available.
UV 1 out of 12
Pollen .10 out of 12
Air Quality Not available.
Flu Activity Not available.
METAR KELZ 311656Z AUTO VRB04KT 10SM OVC037 06/00 A2991 RMK AO2 SLP142 T00560000

More Conditions Fewer Conditions

Pressure 29.95 in
Visibility 10.0 miles
Clouds Overcast 3700 ft
Windchill 46 °F
Dew Point 34 °F
Humidity 63%
Rainfall 0.00 in
Snow Depth Not available.
UV 1 out of 12
Pollen .10 out of 12
Air Quality Not available.
Flu Activity Not available.
METAR KELZ 311656Z AUTO VRB04KT 10SM OVC037 06/00 A2991 RMK AO2 SLP142 T00560000

More Conditions Fewer Conditions

10-Day Weather Forecast

Almanac

Astronomy

Oct. 31, 2014 Rise Set
Actual Time
Civil Twilight
Nautical Twilight
Astronomical Twilight
Moon
Length of Visible Light
Length of Day
Tomorrow will be .
, % of the Moon is Illuminated

Today's Extremes

State Highs State Lows

Community

WunderPhotos

Upload Photos

1,766,660 photos uploaded!

WunderBlogs® & News

Nearby

Air Quality

  Air Quality AQ Index Pollutant
Not available.

Snow Depth

Station Depth Elevation

Earthquake Activity

City Distance Mag. Time & Date
Minimum magnitude displayed is 2.5.

Coastal Water Temperatures

Place Temperature

Nearby Weather Stations